sensor_id;sensor_type;location;lat;lon;timestamp;P1;durP1;ratioP1;P2;durP2;ratioP2
19566;SDS011;9930;49.240;8.548;2023-05-29T00:00:28;3.90;;;3.22;;
19566;SDS011;9930;49.240;8.548;2023-05-29T00:02:54;3.63;;;2.95;;
19566;SDS011;9930;49.240;8.548;2023-05-29T00:05:20;3.22;;;2.65;;
19566;SDS011;9930;49.240;8.548;2023-05-29T00:07:45;3.60;;;2.90;;
19566;SDS011;9930;49.240;8.548;2023-05-29T00:10:12;3.28;;;2.95;;
19566;SDS011;9930;49.240;8.548;2023-05-29T00:12:40;3.53;;;2.78;;
19566;SDS011;9930;49.240;8.548;2023-05-29T00:15:06;3.90;;;2.97;;
19566;SDS011;9930;49.240;8.548;2023-05-29T00:17:37;3.95;;;3.10;;
19566;SDS011;9930;49.240;8.548;2023-05-29T00:20:07;3.10;;;2.53;;
19566;SDS011;9930;49.240;8.548;2023-05-29T00:22:37;3.33;;;2.85;;
19566;SDS011;9930;49.240;8.548;2023-05-29T00:25:06;3.28;;;2.97;;
19566;SDS011;9930;49.240;8.548;2023-05-29T00:27:32;3.70;;;2.85;;
19566;SDS011;9930;49.240;8.548;2023-05-29T00:30:02;3.53;;;2.85;;
19566;SDS011;9930;49.240;8.548;2023-05-29T00:32:31;3.10;;;2.72;;
19566;SDS011;9930;49.240;8.548;2023-05-29T00:34:57;3.35;;;2.78;;
19566;SDS011;9930;49.240;8.548;2023-05-29T00:37:23;4.07;;;2.88;;
19566;SDS011;9930;49.240;8.548;2023-05-29T00:39:50;3.90;;;2.90;;
19566;SDS011;9930;49.240;8.548;2023-05-29T00:42:16;2.83;;;2.50;;
19566;SDS011;9930;49.240;8.548;2023-05-29T00:44:42;3.05;;;2.75;;
19566;SDS011;9930;49.240;8.548;2023-05-29T00:47:11;3.20;;;2.88;;
19566;SDS011;9930;49.240;8.548;2023-05-29T00:49:39;3.42;;;3.00;;
19566;SDS011;9930;49.240;8.548;2023-05-29T00:52:05;3.30;;;2.78;;
19566;SDS011;9930;49.240;8.548;2023-05-29T00:54:36;2.95;;;2.58;;
19566;SDS011;9930;49.240;8.548;2023-05-29T00:57:05;3.22;;;2.92;;
19566;SDS011;9930;49.240;8.548;2023-05-29T00:59:31;4.65;;;3.22;;
19566;SDS011;9930;49.240;8.548;2023-05-29T01:01:59;4.05;;;3.13;;
19566;SDS011;9930;49.240;8.548;2023-05-29T01:04:30;3.70;;;3.00;;
19566;SDS011;9930;49.240;8.548;2023-05-29T01:06:58;3.45;;;2.97;;
19566;SDS011;9930;49.240;8.548;2023-05-29T01:09:27;4.28;;;3.25;;
19566;SDS011;9930;49.240;8.548;2023-05-29T01:20:42;3.58;;;2.92;;
19566;SDS011;9930;49.240;8.548;2023-05-29T01:23:25;3.53;;;3.13;;
19566;SDS011;9930;49.240;8.548;2023-05-29T01:28:56;4.18;;;2.97;;
19566;SDS011;9930;49.240;8.548;2023-05-29T01:31:25;4.82;;;3.00;;
19566;SDS011;9930;49.240;8.548;2023-05-29T01:33:53;4.43;;;3.25;;
19566;SDS011;9930;49.240;8.548;2023-05-29T01:36:24;3.08;;;2.75;;
19566;SDS011;9930;49.240;8.548;2023-05-29T01:38:53;3.30;;;3.00;;
19566;SDS011;9930;49.240;8.548;2023-05-29T01:41:22;3.10;;;2.83;;
19566;SDS011;9930;49.240;8.548;2023-05-29T01:43:50;3.33;;;3.03;;
19566;SDS011;9930;49.240;8.548;2023-05-29T01:46:18;3.72;;;3.42;;
19566;SDS011;9930;49.240;8.548;2023-05-29T01:48:47;3.58;;;3.28;;
19566;SDS011;9930;49.240;8.548;2023-05-29T01:51:15;4.88;;;3.60;;
19566;SDS011;9930;49.240;8.548;2023-05-29T01:53:42;4.43;;;3.40;;
19566;SDS011;9930;49.240;8.548;2023-05-29T01:56:09;3.58;;;3.03;;
19566;SDS011;9930;49.240;8.548;2023-05-29T01:58:37;4.30;;;3.40;;
19566;SDS011;9930;49.240;8.548;2023-05-29T02:01:06;3.30;;;3.00;;
19566;SDS011;9930;49.240;8.548;2023-05-29T02:03:34;3.58;;;3.28;;
19566;SDS011;9930;49.240;8.548;2023-05-29T02:06:02;4.30;;;3.65;;
19566;SDS011;9930;49.240;8.548;2023-05-29T02:08:28;3.72;;;3.20;;
19566;SDS011;9930;49.240;8.548;2023-05-29T02:10:54;3.53;;;3.22;;
19566;SDS011;9930;49.240;8.548;2023-05-29T02:13:22;4.00;;;3.40;;
19566;SDS011;9930;49.240;8.548;2023-05-29T02:15:48;3.97;;;3.10;;
19566;SDS011;9930;49.240;8.548;2023-05-29T02:18:16;4.55;;;3.38;;
19566;SDS011;9930;49.240;8.548;2023-05-29T02:20:42;3.60;;;3.30;;
19566;SDS011;9930;49.240;8.548;2023-05-29T02:23:08;3.70;;;3.30;;
19566;SDS011;9930;49.240;8.548;2023-05-29T02:25:41;3.60;;;3.30;;
19566;SDS011;9930;49.240;8.548;2023-05-29T02:28:07;4.47;;;3.50;;
19566;SDS011;9930;49.240;8.548;2023-05-29T02:30:36;3.67;;;3.28;;
19566;SDS011;9930;49.240;8.548;2023-05-29T02:33:07;4.53;;;3.80;;
19566;SDS011;9930;49.240;8.548;2023-05-29T02:35:41;3.58;;;3.25;;
19566;SDS011;9930;49.240;8.548;2023-05-29T02:38:11;3.95;;;3.58;;
19566;SDS011;9930;49.240;8.548;2023-05-29T02:40:37;4.25;;;3.22;;
19566;SDS011;9930;49.240;8.548;2023-05-29T02:43:04;3.75;;;3.20;;
19566;SDS011;9930;49.240;8.548;2023-05-29T02:45:33;4.30;;;3.30;;
19566;SDS011;9930;49.240;8.548;2023-05-29T02:47:58;3.97;;;3.42;;
19566;SDS011;9930;49.240;8.548;2023-05-29T02:50:26;3.72;;;3.33;;
19566;SDS011;9930;49.240;8.548;2023-05-29T02:52:54;4.03;;;3.38;;
19566;SDS011;9930;49.240;8.548;2023-05-29T02:55:22;3.53;;;3.17;;
19566;SDS011;9930;49.240;8.548;2023-05-29T02:57:50;3.97;;;3.35;;
19566;SDS011;9930;49.240;8.548;2023-05-29T03:00:20;41.38;;;22.67;;
19566;SDS011;9930;49.240;8.548;2023-05-29T03:02:50;26.15;;;15.10;;
19566;SDS011;9930;49.240;8.548;2023-05-29T03:05:16;12.95;;;8.18;;
19566;SDS011;9930;49.240;8.548;2023-05-29T03:07:42;6.40;;;5.00;;
19566;SDS011;9930;49.240;8.548;2023-05-29T03:10:08;4.18;;;3.78;;
19566;SDS011;9930;49.240;8.548;2023-05-29T03:12:42;4.65;;;3.95;;
19566;SDS011;9930;49.240;8.548;2023-05-29T03:15:11;3.60;;;3.30;;
19566;SDS011;9930;49.240;8.548;2023-05-29T03:17:45;4.90;;;3.80;;
19566;SDS011;9930;49.240;8.548;2023-05-29T03:20:11;4.18;;;3.55;;
19566;SDS011;9930;49.240;8.548;2023-05-29T03:22:40;4.30;;;3.63;;
19566;SDS011;9930;49.240;8.548;2023-05-29T03:25:10;4.07;;;3.33;;
19566;SDS011;9930;49.240;8.548;2023-05-29T03:27:36;4.15;;;3.40;;
19566;SDS011;9930;49.240;8.548;2023-05-29T03:30:02;3.88;;;3.47;;
19566;SDS011;9930;49.240;8.548;2023-05-29T03:32:28;3.80;;;3.40;;
19566;SDS011;9930;49.240;8.548;2023-05-29T03:34:54;4.63;;;3.30;;
19566;SDS011;9930;49.240;8.548;2023-05-29T03:37:22;3.75;;;3.42;;
19566;SDS011;9930;49.240;8.548;2023-05-29T03:39:50;9.40;;;7.00;;
19566;SDS011;9930;49.240;8.548;2023-05-29T03:42:17;41.50;;;25.10;;
19566;SDS011;9930;49.240;8.548;2023-05-29T03:44:45;43.15;;;26.92;;
19566;SDS011;9930;49.240;8.548;2023-05-29T03:47:12;22.52;;;14.82;;
19566;SDS011;9930;49.240;8.548;2023-05-29T03:49:42;14.73;;;9.52;;
19566;SDS011;9930;49.240;8.548;2023-05-29T03:52:08;11.10;;;7.05;;
19566;SDS011;9930;49.240;8.548;2023-05-29T03:54:40;6.10;;;4.75;;
19566;SDS011;9930;49.240;8.548;2023-05-29T03:57:46;4.63;;;4.13;;
19566;SDS011;9930;49.240;8.548;2023-05-29T04:00:12;4.50;;;3.83;;
19566;SDS011;9930;49.240;8.548;2023-05-29T04:02:41;3.75;;;3.35;;
19566;SDS011;9930;49.240;8.548;2023-05-29T04:05:10;3.70;;;3.35;;
19566;SDS011;9930;49.240;8.548;2023-05-29T04:07:41;7.03;;;4.03;;
19566;SDS011;9930;49.240;8.548;2023-05-29T04:10:11;3.85;;;3.33;;
19566;SDS011;9930;49.240;8.548;2023-05-29T04:12:43;5.85;;;3.85;;
19566;SDS011;9930;49.240;8.548;2023-05-29T04:15:11;4.07;;;3.65;;
19566;SDS011;9930;49.240;8.548;2023-05-29T04:17:38;3.70;;;3.40;;
19566;SDS011;9930;49.240;8.548;2023-05-29T04:20:10;4.20;;;3.47;;
19566;SDS011;9930;49.240;8.548;2023-05-29T04:22:36;3.90;;;3.50;;
19566;SDS011;9930;49.240;8.548;2023-05-29T04:25:03;4.88;;;3.40;;
19566;SDS011;9930;49.240;8.548;2023-05-29T04:27:33;5.32;;;3.63;;
19566;SDS011;9930;49.240;8.548;2023-05-29T04:30:02;4.03;;;3.55;;
19566;SDS011;9930;49.240;8.548;2023-05-29T04:32:36;5.60;;;4.47;;
19566;SDS011;9930;49.240;8.548;2023-05-29T04:35:01;4.32;;;3.92;;
19566;SDS011;9930;49.240;8.548;2023-05-29T04:37:31;4.20;;;3.80;;
19566;SDS011;9930;49.240;8.548;2023-05-29T04:40:03;4.22;;;3.67;;
19566;SDS011;9930;49.240;8.548;2023-05-29T04:42:37;3.88;;;3.47;;
19566;SDS011;9930;49.240;8.548;2023-05-29T04:45:06;5.07;;;3.80;;
19566;SDS011;9930;49.240;8.548;2023-05-29T04:47:32;4.35;;;3.95;;
19566;SDS011;9930;49.240;8.548;2023-05-29T04:50:01;3.97;;;3.67;;
19566;SDS011;9930;49.240;8.548;2023-05-29T04:52:27;3.92;;;3.60;;
19566;SDS011;9930;49.240;8.548;2023-05-29T04:54:55;5.00;;;4.22;;
19566;SDS011;9930;49.240;8.548;2023-05-29T04:57:21;4.78;;;4.18;;
19566;SDS011;9930;49.240;8.548;2023-05-29T04:59:47;5.35;;;4.55;;
19566;SDS011;9930;49.240;8.548;2023-05-29T05:02:13;4.43;;;3.80;;
19566;SDS011;9930;49.240;8.548;2023-05-29T05:04:44;4.50;;;4.10;;
19566;SDS011;9930;49.240;8.548;2023-05-29T05:07:12;5.45;;;3.90;;
19566;SDS011;9930;49.240;8.548;2023-05-29T05:09:44;4.60;;;4.20;;
19566;SDS011;9930;49.240;8.548;2023-05-29T05:12:11;5.32;;;4.25;;
19566;SDS011;9930;49.240;8.548;2023-05-29T05:14:37;5.78;;;4.10;;
19566;SDS011;9930;49.240;8.548;2023-05-29T05:17:05;5.35;;;4.15;;
19566;SDS011;9930;49.240;8.548;2023-05-29T05:19:35;4.25;;;3.58;;
19566;SDS011;9930;49.240;8.548;2023-05-29T05:22:01;4.15;;;3.72;;
19566;SDS011;9930;49.240;8.548;2023-05-29T05:24:26;3.78;;;3.47;;
19566;SDS011;9930;49.240;8.548;2023-05-29T05:26:52;3.47;;;3.08;;
19566;SDS011;9930;49.240;8.548;2023-05-29T05:29:20;4.63;;;3.70;;
19566;SDS011;9930;49.240;8.548;2023-05-29T05:31:46;4.53;;;3.80;;
19566;SDS011;9930;49.240;8.548;2023-05-29T05:34:14;4.40;;;3.78;;
19566;SDS011;9930;49.240;8.548;2023-05-29T05:36:42;3.50;;;3.20;;
19566;SDS011;9930;49.240;8.548;2023-05-29T05:39:10;3.85;;;3.50;;
19566;SDS011;9930;49.240;8.548;2023-05-29T05:41:36;3.70;;;3.28;;
19566;SDS011;9930;49.240;8.548;2023-05-29T05:44:02;3.45;;;2.92;;
19566;SDS011;9930;49.240;8.548;2023-05-29T05:46:29;3.38;;;3.08;;
19566;SDS011;9930;49.240;8.548;2023-05-29T05:48:55;3.20;;;2.90;;
19566;SDS011;9930;49.240;8.548;2023-05-29T05:51:26;3.60;;;3.20;;
19566;SDS011;9930;49.240;8.548;2023-05-29T05:53:52;3.45;;;2.80;;
19566;SDS011;9930;49.240;8.548;2023-05-29T05:56:18;3.53;;;2.90;;
19566;SDS011;9930;49.240;8.548;2023-05-29T05:58:49;3.22;;;2.92;;
19566;SDS011;9930;49.240;8.548;2023-05-29T06:01:15;3.45;;;3.15;;
19566;SDS011;9930;49.240;8.548;2023-05-29T06:03:41;3.15;;;2.88;;
19566;SDS011;9930;49.240;8.548;2023-05-29T06:06:08;3.33;;;3.03;;
19566;SDS011;9930;49.240;8.548;2023-05-29T06:08:39;5.13;;;3.05;;
19566;SDS011;9930;49.240;8.548;2023-05-29T06:11:08;4.03;;;3.10;;
19566;SDS011;9930;49.240;8.548;2023-05-29T06:13:40;3.17;;;2.83;;
19566;SDS011;9930;49.240;8.548;2023-05-29T06:16:08;3.17;;;2.58;;
19566;SDS011;9930;49.240;8.548;2023-05-29T06:18:36;3.15;;;2.85;;
19566;SDS011;9930;49.240;8.548;2023-05-29T06:21:02;3.97;;;3.00;;
19566;SDS011;9930;49.240;8.548;2023-05-29T06:23:28;3.22;;;2.88;;
19566;SDS011;9930;49.240;8.548;2023-05-29T06:25:54;3.80;;;2.97;;
19566;SDS011;9930;49.240;8.548;2023-05-29T06:28:20;3.38;;;3.08;;
19566;SDS011;9930;49.240;8.548;2023-05-29T06:30:45;2.95;;;2.60;;
19566;SDS011;9930;49.240;8.548;2023-05-29T06:33:11;3.17;;;2.88;;
19566;SDS011;9930;49.240;8.548;2023-05-29T06:35:40;3.25;;;2.95;;
19566;SDS011;9930;49.240;8.548;2023-05-29T06:38:06;4.90;;;2.70;;
19566;SDS011;9930;49.240;8.548;2023-05-29T06:40:37;4.10;;;3.28;;
19566;SDS011;9930;49.240;8.548;2023-05-29T06:43:06;3.40;;;3.10;;
19566;SDS011;9930;49.240;8.548;2023-05-29T06:45:34;3.85;;;3.03;;
19566;SDS011;9930;49.240;8.548;2023-05-29T06:48:04;3.22;;;2.90;;
19566;SDS011;9930;49.240;8.548;2023-05-29T06:50:30;4.45;;;3.10;;
19566;SDS011;9930;49.240;8.548;2023-05-29T06:53:01;3.50;;;3.20;;
19566;SDS011;9930;49.240;8.548;2023-05-29T06:55:27;3.30;;;3.00;;
19566;SDS011;9930;49.240;8.548;2023-05-29T06:57:53;3.35;;;3.05;;
19566;SDS011;9930;49.240;8.548;2023-05-29T07:00:18;3.20;;;2.90;;
19566;SDS011;9930;49.240;8.548;2023-05-29T07:02:44;4.50;;;3.10;;
19566;SDS011;9930;49.240;8.548;2023-05-29T07:05:13;3.13;;;2.83;;
19566;SDS011;9930;49.240;8.548;2023-05-29T07:07:44;4.03;;;2.58;;
19566;SDS011;9930;49.240;8.548;2023-05-29T07:10:11;3.00;;;2.70;;
19566;SDS011;9930;49.240;8.548;2023-05-29T07:12:41;3.85;;;2.97;;
19566;SDS011;9930;49.240;8.548;2023-05-29T07:15:07;3.10;;;2.70;;
19566;SDS011;9930;49.240;8.548;2023-05-29T07:17:35;3.80;;;2.88;;
19566;SDS011;9930;49.240;8.548;2023-05-29T07:20:03;3.45;;;2.70;;
19566;SDS011;9930;49.240;8.548;2023-05-29T07:22:35;3.13;;;2.67;;
19566;SDS011;9930;49.240;8.548;2023-05-29T07:25:02;3.85;;;2.85;;
19566;SDS011;9930;49.240;8.548;2023-05-29T07:27:29;2.58;;;2.38;;
19566;SDS011;9930;49.240;8.548;2023-05-29T07:29:57;5.68;;;3.08;;
19566;SDS011;9930;49.240;8.548;2023-05-29T07:32:22;3.97;;;3.03;;
19566;SDS011;9930;49.240;8.548;2023-05-29T07:34:48;3.28;;;2.78;;
19566;SDS011;9930;49.240;8.548;2023-05-29T07:37:15;3.40;;;3.00;;
19566;SDS011;9930;49.240;8.548;2023-05-29T07:39:41;2.65;;;2.42;;
19566;SDS011;9930;49.240;8.548;2023-05-29T07:42:07;3.38;;;2.90;;
19566;SDS011;9930;49.240;8.548;2023-05-29T07:44:41;4.28;;;3.08;;
19566;SDS011;9930;49.240;8.548;2023-05-29T07:47:11;3.55;;;2.92;;
19566;SDS011;9930;49.240;8.548;2023-05-29T07:49:37;2.88;;;2.67;;
19566;SDS011;9930;49.240;8.548;2023-05-29T07:52:05;3.03;;;2.63;;
19566;SDS011;9930;49.240;8.548;2023-05-29T07:54:31;3.05;;;2.80;;
19566;SDS011;9930;49.240;8.548;2023-05-29T07:57:00;3.25;;;2.95;;
19566;SDS011;9930;49.240;8.548;2023-05-29T07:59:28;2.67;;;2.47;;
19566;SDS011;9930;49.240;8.548;2023-05-29T08:01:54;2.65;;;2.45;;
19566;SDS011;9930;49.240;8.548;2023-05-29T08:04:25;3.13;;;2.83;;
19566;SDS011;9930;49.240;8.548;2023-05-29T08:06:51;3.22;;;2.55;;
19566;SDS011;9930;49.240;8.548;2023-05-29T08:09:19;3.35;;;2.97;;
19566;SDS011;9930;49.240;8.548;2023-05-29T08:11:45;2.80;;;2.50;;
19566;SDS011;9930;49.240;8.548;2023-05-29T08:14:13;3.75;;;2.80;;
19566;SDS011;9930;49.240;8.548;2023-05-29T08:16:40;3.50;;;2.67;;
19566;SDS011;9930;49.240;8.548;2023-05-29T08:19:07;3.45;;;2.70;;
19566;SDS011;9930;49.240;8.548;2023-05-29T08:21:35;3.83;;;2.80;;
19566;SDS011;9930;49.240;8.548;2023-05-29T08:24:07;3.40;;;3.10;;
19566;SDS011;9930;49.240;8.548;2023-05-29T08:26:35;2.78;;;2.45;;
19566;SDS011;9930;49.240;8.548;2023-05-29T08:29:01;2.97;;;2.70;;
19566;SDS011;9930;49.240;8.548;2023-05-29T08:31:27;3.10;;;2.80;;
19566;SDS011;9930;49.240;8.548;2023-05-29T08:33:56;3.58;;;2.75;;
19566;SDS011;9930;49.240;8.548;2023-05-29T08:36:21;3.35;;;2.97;;
19566;SDS011;9930;49.240;8.548;2023-05-29T08:38:49;2.78;;;2.55;;
19566;SDS011;9930;49.240;8.548;2023-05-29T08:41:24;2.85;;;2.65;;
19566;SDS011;9930;49.240;8.548;2023-05-29T08:44:13;3.30;;;2.70;;
19566;SDS011;9930;49.240;8.548;2023-05-29T08:46:43;2.90;;;2.47;;
19566;SDS011;9930;49.240;8.548;2023-05-29T08:49:12;3.45;;;2.72;;
19566;SDS011;9930;49.240;8.548;2023-05-29T08:51:47;3.22;;;2.92;;
19566;SDS011;9930;49.240;8.548;2023-05-29T08:54:22;2.95;;;2.63;;
19566;SDS011;9930;49.240;8.548;2023-05-29T08:56:51;3.20;;;2.65;;
19566;SDS011;9930;49.240;8.548;2023-05-29T08:59:17;2.70;;;2.50;;
19566;SDS011;9930;49.240;8.548;2023-05-29T09:01:43;5.63;;;2.80;;
19566;SDS011;9930;49.240;8.548;2023-05-29T09:04:10;3.13;;;2.92;;
19566;SDS011;9930;49.240;8.548;2023-05-29T09:06:40;2.90;;;2.70;;
19566;SDS011;9930;49.240;8.548;2023-05-29T09:09:10;3.42;;;2.80;;
19566;SDS011;9930;49.240;8.548;2023-05-29T09:11:37;3.38;;;2.58;;
19566;SDS011;9930;49.240;8.548;2023-05-29T09:14:03;3.10;;;2.75;;
19566;SDS011;9930;49.240;8.548;2023-05-29T09:17:01;3.38;;;3.08;;
19566;SDS011;9930;49.240;8.548;2023-05-29T09:19:38;3.00;;;2.70;;
19566;SDS011;9930;49.240;8.548;2023-05-29T09:22:08;3.08;;;2.78;;
19566;SDS011;9930;49.240;8.548;2023-05-29T09:24:45;3.22;;;2.53;;
19566;SDS011;9930;49.240;8.548;2023-05-29T09:27:13;3.78;;;2.90;;
19566;SDS011;9930;49.240;8.548;2023-05-29T09:29:54;4.30;;;2.83;;
19566;SDS011;9930;49.240;8.548;2023-05-29T09:32:26;3.28;;;2.97;;
19566;SDS011;9930;49.240;8.548;2023-05-29T09:35:16;3.35;;;2.95;;
19566;SDS011;9930;49.240;8.548;2023-05-29T09:37:48;4.25;;;2.63;;
19566;SDS011;9930;49.240;8.548;2023-05-29T09:40:22;3.03;;;2.72;;
19566;SDS011;9930;49.240;8.548;2023-05-29T09:42:48;3.38;;;2.92;;
19566;SDS011;9930;49.240;8.548;2023-05-29T09:45:17;3.00;;;2.55;;
19566;SDS011;9930;49.240;8.548;2023-05-29T09:47:43;3.22;;;2.67;;
19566;SDS011;9930;49.240;8.548;2023-05-29T09:50:18;2.97;;;2.67;;
19566;SDS011;9930;49.240;8.548;2023-05-29T09:52:47;2.80;;;2.50;;
19566;SDS011;9930;49.240;8.548;2023-05-29T09:55:17;2.80;;;2.50;;
19566;SDS011;9930;49.240;8.548;2023-05-29T09:57:53;3.28;;;2.72;;
19566;SDS011;9930;49.240;8.548;2023-05-29T10:00:20;2.53;;;2.33;;
19566;SDS011;9930;49.240;8.548;2023-05-29T10:02:48;3.05;;;2.47;;
19566;SDS011;9930;49.240;8.548;2023-05-29T10:05:15;3.28;;;2.80;;
19566;SDS011;9930;49.240;8.548;2023-05-29T10:07:44;2.47;;;2.20;;
19566;SDS011;9930;49.240;8.548;2023-05-29T10:10:17;2.80;;;2.60;;
19566;SDS011;9930;49.240;8.548;2023-05-29T10:12:49;2.55;;;2.35;;
19566;SDS011;9930;49.240;8.548;2023-05-29T10:15:18;2.90;;;2.60;;
19566;SDS011;9930;49.240;8.548;2023-05-29T10:17:49;3.22;;;2.92;;
19566;SDS011;9930;49.240;8.548;2023-05-29T10:20:29;2.45;;;2.20;;
19566;SDS011;9930;49.240;8.548;2023-05-29T10:22:59;4.00;;;3.05;;
19566;SDS011;9930;49.240;8.548;2023-05-29T10:25:32;2.88;;;2.67;;
19566;SDS011;9930;49.240;8.548;2023-05-29T10:28:04;2.65;;;2.45;;
19566;SDS011;9930;49.240;8.548;2023-05-29T10:30:41;2.78;;;2.58;;
19566;SDS011;9930;49.240;8.548;2023-05-29T10:36:28;3.10;;;2.72;;
19566;SDS011;9930;49.240;8.548;2023-05-29T10:39:02;3.22;;;2.92;;
19566;SDS011;9930;49.240;8.548;2023-05-29T10:41:31;3.33;;;2.80;;
19566;SDS011;9930;49.240;8.548;2023-05-29T10:43:59;3.35;;;2.78;;
19566;SDS011;9930;49.240;8.548;2023-05-29T10:49:19;3.05;;;2.40;;
19566;SDS011;9930;49.240;8.548;2023-05-29T10:51:48;4.40;;;2.97;;
19566;SDS011;9930;49.240;8.548;2023-05-29T10:54:14;3.10;;;2.70;;
19566;SDS011;9930;49.240;8.548;2023-05-29T10:56:44;3.00;;;2.45;;
19566;SDS011;9930;49.240;8.548;2023-05-29T10:59:22;3.20;;;2.55;;
19566;SDS011;9930;49.240;8.548;2023-05-29T11:01:54;2.97;;;2.70;;
19566;SDS011;9930;49.240;8.548;2023-05-29T11:06:52;3.15;;;2.80;;
19566;SDS011;9930;49.240;8.548;2023-05-29T11:09:29;4.22;;;2.47;;
19566;SDS011;9930;49.240;8.548;2023-05-29T11:14:47;2.67;;;2.47;;
19566;SDS011;9930;49.240;8.548;2023-05-29T11:17:31;2.75;;;2.53;;
19566;SDS011;9930;49.240;8.548;2023-05-29T11:20:07;3.00;;;2.65;;
19566;SDS011;9930;49.240;8.548;2023-05-29T11:25:28;2.90;;;2.60;;
19566;SDS011;9930;49.240;8.548;2023-05-29T11:27:54;3.72;;;2.80;;
19566;SDS011;9930;49.240;8.548;2023-05-29T11:30:20;2.95;;;2.70;;
19566;SDS011;9930;49.240;8.548;2023-05-29T11:32:49;3.13;;;2.83;;
19566;SDS011;9930;49.240;8.548;2023-05-29T11:35:17;2.80;;;2.58;;
19566;SDS011;9930;49.240;8.548;2023-05-29T11:37:47;4.18;;;2.80;;
19566;SDS011;9930;49.240;8.548;2023-05-29T11:40:19;2.97;;;2.58;;
19566;SDS011;9930;49.240;8.548;2023-05-29T11:42:45;3.47;;;2.88;;
19566;SDS011;9930;49.240;8.548;2023-05-29T11:45:17;2.92;;;2.63;;
19566;SDS011;9930;49.240;8.548;2023-05-29T11:47:56;3.35;;;2.80;;
19566;SDS011;9930;49.240;8.548;2023-05-29T11:50:30;3.22;;;2.50;;
19566;SDS011;9930;49.240;8.548;2023-05-29T11:52:58;2.50;;;2.30;;
19566;SDS011;9930;49.240;8.548;2023-05-29T11:55:27;2.92;;;2.60;;
19566;SDS011;9930;49.240;8.548;2023-05-29T11:57:57;3.42;;;2.90;;
19566;SDS011;9930;49.240;8.548;2023-05-29T12:00:33;3.25;;;2.95;;
19566;SDS011;9930;49.240;8.548;2023-05-29T12:03:06;3.20;;;2.90;;
19566;SDS011;9930;49.240;8.548;2023-05-29T12:05:33;3.55;;;2.90;;
19566;SDS011;9930;49.240;8.548;2023-05-29T12:08:14;3.33;;;2.90;;
19566;SDS011;9930;49.240;8.548;2023-05-29T12:10:48;2.65;;;2.45;;
19566;SDS011;9930;49.240;8.548;2023-05-29T12:13:18;3.03;;;2.72;;
19566;SDS011;9930;49.240;8.548;2023-05-29T12:15:51;3.58;;;2.90;;
19566;SDS011;9930;49.240;8.548;2023-05-29T12:18:23;3.47;;;2.60;;
19566;SDS011;9930;49.240;8.548;2023-05-29T12:20:50;3.20;;;2.40;;
19566;SDS011;9930;49.240;8.548;2023-05-29T12:23:18;2.65;;;2.45;;
19566;SDS011;9930;49.240;8.548;2023-05-29T12:25:47;2.58;;;2.38;;
19566;SDS011;9930;49.240;8.548;2023-05-29T12:28:16;2.90;;;2.70;;
19566;SDS011;9930;49.240;8.548;2023-05-29T12:30:48;2.58;;;2.38;;
19566;SDS011;9930;49.240;8.548;2023-05-29T12:36:03;2.90;;;2.63;;
19566;SDS011;9930;49.240;8.548;2023-05-29T12:38:31;2.63;;;2.40;;
19566;SDS011;9930;49.240;8.548;2023-05-29T12:41:00;2.40;;;2.20;;
19566;SDS011;9930;49.240;8.548;2023-05-29T12:43:28;2.60;;;2.40;;
19566;SDS011;9930;49.240;8.548;2023-05-29T12:45:56;2.70;;;2.47;;
19566;SDS011;9930;49.240;8.548;2023-05-29T12:48:27;2.95;;;2.33;;
19566;SDS011;9930;49.240;8.548;2023-05-29T12:50:57;3.10;;;2.90;;
19566;SDS011;9930;49.240;8.548;2023-05-29T12:53:27;2.95;;;2.65;;
19566;SDS011;9930;49.240;8.548;2023-05-29T12:55:55;3.55;;;2.50;;
19566;SDS011;9930;49.240;8.548;2023-05-29T12:58:26;3.08;;;2.75;;
19566;SDS011;9930;49.240;8.548;2023-05-29T13:00:54;2.50;;;2.30;;
19566;SDS011;9930;49.240;8.548;2023-05-29T13:03:20;2.80;;;2.58;;
19566;SDS011;9930;49.240;8.548;2023-05-29T13:05:49;2.83;;;2.50;;
19566;SDS011;9930;49.240;8.548;2023-05-29T13:08:19;4.03;;;3.00;;
19566;SDS011;9930;49.240;8.548;2023-05-29T13:10:46;2.45;;;2.25;;
19566;SDS011;9930;49.240;8.548;2023-05-29T13:13:11;2.60;;;2.40;;
19566;SDS011;9930;49.240;8.548;2023-05-29T13:15:39;3.00;;;2.53;;
19566;SDS011;9930;49.240;8.548;2023-05-29T13:18:09;2.67;;;2.47;;
19566;SDS011;9930;49.240;8.548;2023-05-29T13:20:40;2.50;;;2.30;;
19566;SDS011;9930;49.240;8.548;2023-05-29T13:23:12;2.40;;;2.20;;
19566;SDS011;9930;49.240;8.548;2023-05-29T13:25:38;2.70;;;2.35;;
19566;SDS011;9930;49.240;8.548;2023-05-29T13:28:05;2.38;;;2.17;;
19566;SDS011;9930;49.240;8.548;2023-05-29T13:30:31;2.80;;;2.60;;
19566;SDS011;9930;49.240;8.548;2023-05-29T13:32:57;3.00;;;2.70;;
19566;SDS011;9930;49.240;8.548;2023-05-29T13:35:23;3.03;;;2.55;;
19566;SDS011;9930;49.240;8.548;2023-05-29T13:37:48;3.10;;;2.85;;
19566;SDS011;9930;49.240;8.548;2023-05-29T13:40:14;3.00;;;2.80;;
19566;SDS011;9930;49.240;8.548;2023-05-29T13:42:45;2.63;;;2.42;;
19566;SDS011;9930;49.240;8.548;2023-05-29T13:45:13;3.13;;;2.50;;
19566;SDS011;9930;49.240;8.548;2023-05-29T13:47:41;2.78;;;2.58;;
19566;SDS011;9930;49.240;8.548;2023-05-29T13:50:07;2.63;;;2.42;;
19566;SDS011;9930;49.240;8.548;2023-05-29T13:52:33;2.72;;;2.20;;
19566;SDS011;9930;49.240;8.548;2023-05-29T13:55:05;2.83;;;2.53;;
19566;SDS011;9930;49.240;8.548;2023-05-29T13:57:34;2.75;;;2.53;;
19566;SDS011;9930;49.240;8.548;2023-05-29T14:00:01;2.72;;;2.53;;
19566;SDS011;9930;49.240;8.548;2023-05-29T14:02:31;2.83;;;2.58;;
19566;SDS011;9930;49.240;8.548;2023-05-29T14:04:57;3.80;;;3.50;;
19566;SDS011;9930;49.240;8.548;2023-05-29T14:07:22;3.30;;;2.58;;
19566;SDS011;9930;49.240;8.548;2023-05-29T14:09:50;2.50;;;2.30;;
19566;SDS011;9930;49.240;8.548;2023-05-29T14:12:19;2.88;;;2.17;;
19566;SDS011;9930;49.240;8.548;2023-05-29T14:14:47;2.60;;;2.35;;
19566;SDS011;9930;49.240;8.548;2023-05-29T14:17:14;2.42;;;2.22;;
19566;SDS011;9930;49.240;8.548;2023-05-29T14:19:40;3.03;;;2.40;;
19566;SDS011;9930;49.240;8.548;2023-05-29T14:22:10;2.30;;;2.10;;
19566;SDS011;9930;49.240;8.548;2023-05-29T14:24:42;2.40;;;2.20;;
19566;SDS011;9930;49.240;8.548;2023-05-29T14:27:11;2.92;;;2.63;;
19566;SDS011;9930;49.240;8.548;2023-05-29T14:29:37;2.60;;;2.25;;
19566;SDS011;9930;49.240;8.548;2023-05-29T14:32:02;2.50;;;2.30;;
19566;SDS011;9930;49.240;8.548;2023-05-29T14:34:29;4.22;;;2.30;;
19566;SDS011;9930;49.240;8.548;2023-05-29T14:36:54;2.35;;;2.15;;
19566;SDS011;9930;49.240;8.548;2023-05-29T14:39:24;2.95;;;2.50;;
19566;SDS011;9930;49.240;8.548;2023-05-29T14:41:52;2.65;;;2.40;;
19566;SDS011;9930;49.240;8.548;2023-05-29T14:44:21;2.50;;;2.30;;
19566;SDS011;9930;49.240;8.548;2023-05-29T14:46:46;2.50;;;2.15;;
19566;SDS011;9930;49.240;8.548;2023-05-29T14:49:12;2.40;;;2.20;;
19566;SDS011;9930;49.240;8.548;2023-05-29T14:51:38;2.78;;;2.50;;
19566;SDS011;9930;49.240;8.548;2023-05-29T14:54:09;2.50;;;2.10;;
19566;SDS011;9930;49.240;8.548;2023-05-29T14:56:36;2.30;;;2.10;;
19566;SDS011;9930;49.240;8.548;2023-05-29T14:59:07;2.40;;;2.20;;
19566;SDS011;9930;49.240;8.548;2023-05-29T15:01:33;2.50;;;2.30;;
19566;SDS011;9930;49.240;8.548;2023-05-29T15:03:58;2.97;;;2.15;;
19566;SDS011;9930;49.240;8.548;2023-05-29T15:06:26;2.45;;;2.25;;
19566;SDS011;9930;49.240;8.548;2023-05-29T15:08:53;2.47;;;2.20;;
19566;SDS011;9930;49.240;8.548;2023-05-29T15:11:21;2.42;;;2.20;;
19566;SDS011;9930;49.240;8.548;2023-05-29T15:13:49;2.67;;;2.47;;
19566;SDS011;9930;49.240;8.548;2023-05-29T15:16:14;2.38;;;2.17;;
19566;SDS011;9930;49.240;8.548;2023-05-29T15:18:43;3.05;;;2.20;;
19566;SDS011;9930;49.240;8.548;2023-05-29T15:21:10;2.40;;;2.20;;
19566;SDS011;9930;49.240;8.548;2023-05-29T15:23:38;2.28;;;2.08;;
19566;SDS011;9930;49.240;8.548;2023-05-29T15:26:05;2.55;;;2.35;;
19566;SDS011;9930;49.240;8.548;2023-05-29T15:28:35;2.67;;;2.47;;
19566;SDS011;9930;49.240;8.548;2023-05-29T15:31:01;2.50;;;2.25;;
19566;SDS011;9930;49.240;8.548;2023-05-29T15:33:29;2.42;;;2.22;;
19566;SDS011;9930;49.240;8.548;2023-05-29T15:35:57;2.70;;;2.42;;
19566;SDS011;9930;49.240;8.548;2023-05-29T15:38:25;2.50;;;2.30;;